Haile, Louisiana
Current Conditions -  °F | °C
As of 4:35 PM on Wednesday 22 Oct 2014 (Local Time) from KBQP Reporting Station
Clear Clear  
Wind Chill: 74°   Ceiling: Unl
Heat Index: 74°   Visibility: 10mi
Dew Point: 51°   Wind: 7mph
Humidity: 45%   Direction: 60°ENE
Pressure: 30.12"   Gusts: NA
Location:  32.906°N, 92.243°W
Report Text: KBQP 222135Z AUTO 06006KT 10SM CLR 23/10 A3012 RMK AO2 T02310104
Loading
Personal Weather Stations






























Interactive Weather Map
Tropical Storm Tracking
New forecast layout! Learn more

10-Day Weather Forecast

Advertisements
Track Severe Weather on mobile